• Join FlightAware (Why Join?)
  • Login
  • US Flag 
04:50PM EST


 

Airport Tracker/Info


-or-


 

Live Flight TrackerFlight Track Log ✈ N105WC ✈ 30-Jan-2014 ✈ CYVR - CYRP

Flight Track Log - Related Links

Times and Time Zones

All times are in EST time to prevent confusion due to time zone crossing. See the N105WC flight status page for this flight to view local times or setup timezone preferences in your user account.

Time Position Orientation Groundspeed Altitude Reporting Facility
EST Latitude Longitude Course Direction KTS MPH feet Rate Location/Type
10:16AM 49.1500 -123.1167 111° Southeast 200 230 2,400  Level Vancouver Center
10:17AM 49.1333 -123.0167 104° East 250 288 4,800 3,060 Climbing Vancouver Center
10:18AM 49.1167 -122.8833 101° East 270 311 8,600 3,300 Climbing Vancouver Center
10:19AM 49.1000 -122.7833 104° East 270 311 11,500 2,520 Climbing Vancouver Center
10:20AM 49.1167 -122.6500 79° East 290 334 13,700 2,220 Climbing Vancouver Center
10:21AM 48.9333 -121.8941 90° East  Level FlightAware Approximate
10:21AM 49.1167 -122.5167 90° East 310 357 16,000  Level Vancouver Center
10:22AM 49.1333 -122.3667 80° East 340 391 18,100 2,100 Climbing Vancouver Center
10:23AM 49.1333 -122.2167 90° East 360 414 20,300 1,980 Climbing Vancouver Center
10:24AM 49.1333 -122.0667 90° East 380 437 22,100 1,860 Climbing Vancouver Center
10:25AM 49.1500 -121.8833 82° East 390 449 24,100 1,920 Climbing Vancouver Center
10:26AM 49.1667 -121.7333 80° East 400 460 26,000 1,920 Climbing Vancouver Center
10:27AM 49.1833 -121.5500 82° East 400 460 28,000 1,560 Climbing Vancouver Center
10:28AM 49.2000 -121.3667 82° East 410 472 29,200 1,260 Climbing Vancouver Center
10:29AM 49.2167 -121.2167 80° East 420 483 30,600 1,380 Climbing Vancouver Center
10:30AM 49.2333 -121.0333 82° East 420 483 32,000 1,020 Climbing Vancouver Center
10:31AM 49.2500 -120.8500 82° East 420 483 32,700 720 Climbing Vancouver Center
10:32AM 49.2833 -120.6833 73° East 430 495 33,500 840 Climbing Vancouver Center
10:33AM 49.3000 -120.4667 83° East 430 495 34,400 720 Climbing Vancouver Center
10:34AM 49.3167 -120.3167 80° East 430 495 35,000 600 Climbing Vancouver Center
10:35AM 49.3500 -120.1167 76° East 430 495 35,600 540 Climbing Vancouver Center
10:36AM 49.3500 -119.9333 90° East 430 495 36,100 540 Climbing Vancouver Center
10:37AM 49.3833 -119.7500 74° East 430 495 36,700 420 Climbing Vancouver Center
10:38AM 49.4000 -119.5667 82° East 430 495 37,000 120 Climbing Vancouver Center
10:39AM 49.4167 -119.3833 82° East 440 506 37,000  Level Vancouver Center
10:40AM 49.4333 -119.2000 82° East 450 518 37,000  Level Vancouver Center
10:41AM 49.4500 -119.0167 82° East 460 529 37,000  Level Vancouver Center
10:42AM 49.4833 -118.8167 76° East 460 529 37,000  Level Vancouver Center
10:43AM 49.4833 -118.6000 90° East 460 529 37,000  Level Vancouver Center
10:44AM 49.5167 -118.4167 74° East 470 541 37,000  Level Vancouver Center
10:45AM 49.5333 -118.2167 83° East 460 529 37,000  Level Vancouver Center
10:46AM 49.5500 -118.0000 83° East 470 541 37,000  Level Vancouver Center
10:47AM 49.5667 -117.8167 82° East 470 541 37,000  Level Vancouver Center
10:48AM 49.5833 -117.6333 82° East 470 541 37,000  Level Vancouver Center
10:49AM 49.6000 -117.4333 83° East 470 541 37,000  Level Vancouver Center
10:50AM 49.6167 -117.2167 83° East 470 541 37,000  Level Vancouver Center
10:51AM 49.6333 -117.0167 83° East 470 541 37,000  Level Vancouver Center
10:52AM 49.6500 -116.8333 82° East 470 541 37,000  Level Vancouver Center
10:53AM 49.6667 -116.6167 83° East 470 541 37,000  Level Vancouver Center
10:54AM 49.6833 -116.4167 83° East 470 541 37,000  Level Vancouver Center
10:55AM 49.6833 -116.2000 90° East 470 541 37,000  Level Vancouver Center
10:56AM 49.7000 -116.0167 82° East 470 541 37,000  Level Vancouver Center
10:57AM 49.7333 -115.8167 75° East 480 552 37,000  Level Vancouver Center
10:58AM 49.7333 -115.6000 90° East 470 541 37,000  Level Vancouver Center
10:59AM 49.7500 -115.3833 83° East 480 552 37,000  Level Vancouver Center
11:00AM 49.7667 -115.2000 82° East 480 552 37,000  Level Vancouver Center
11:01AM 49.7667 -115.0000 90° East 480 552 37,000  Level Vancouver Center
11:02AM 49.7833 -114.7833 83° East 480 552 37,000  Level Vancouver Center
11:03AM 49.8000 -114.6000 82° East 480 552 37,000  Level Vancouver Center
11:04AM 49.8000 -114.3667 90° East 490 564 37,000  Level Vancouver Center
11:05AM 49.8167 -114.1833 82° East 490 564 37,000  Level Vancouver Center
11:06AM 49.8333 -113.9500 84° East 490 564 37,000  Level Vancouver Center
11:07AM 49.8500 -113.7667 82° East 490 564 37,000  Level Vancouver Center
11:08AM 49.8500 -113.5333 90° East 490 564 37,000  Level Vancouver Center
11:09AM 49.8667 -113.3333 83° East 490 564 37,000  Level Vancouver Center
11:10AM 49.8833 -113.1333 83° East 490 564 37,000  Level Vancouver Center
11:11AM 49.8833 -112.9167 90° East 490 564 37,000  Level Vancouver Center
11:12AM 49.8833 -112.7000 90° East 490 564 37,000  Level Vancouver Center
11:13AM 49.9000 -112.5000 83° East 490 564 37,000  Level Vancouver Center
11:14AM 49.9167 -112.2833 83° East 490 564 37,000  Level Vancouver Center
11:15AM 49.9000 -112.0833 97° East 480 552 37,000  Level Vancouver Center
11:16AM 49.9167 -111.8667 83° East 490 564 37,000  Level Vancouver Center
11:17AM 49.9333 -111.6500 83° East 490 564 37,000  Level Vancouver Center
11:19AM 49.9333 -111.4000 90° East 480 552 37,000  Level Edmonton Center
11:20AM 49.9333 -111.2000 90° East 480 552 37,000  Level Edmonton Center
11:21AM 49.9500 -110.9833 83° East 480 552 37,000  Level Edmonton Center
11:22AM 49.9500 -110.7833 90° East 490 564 37,000  Level Edmonton Center
11:23AM 49.9500 -110.5667 90° East 480 552 37,000  Level Edmonton Center
11:24AM 49.9500 -110.3667 90° East 490 564 37,000  Level Edmonton Center
11:25AM 49.9667 -110.1500 83° East 490 564 37,000  Level Edmonton Center
11:26AM 49.9667 -109.9500 90° East 490 564 37,000  Level Edmonton Center
11:27AM 49.9667 -109.7333 90° East 490 564 37,000  Level Edmonton Center
11:28AM 49.9667 -109.5000 90° East 490 564 37,000  Level Edmonton Center
11:29AM 49.9667 -109.2833 90° East 490 564 37,000  Level Edmonton Center
11:30AM 49.9833 -109.0500 84° East 500 575 37,000  Level Edmonton Center
11:31AM 49.9667 -108.8500 97° East 500 575 37,000  Level Edmonton Center
11:32AM 49.9833 -108.6333 83° East 500 575 37,000  Level Edmonton Center
11:33AM 49.9833 -108.4167 90° East 500 575 37,000  Level Edmonton Center
11:34AM 49.9833 -108.2167 90° East 500 575 37,000  Level Edmonton Center
11:35AM 49.9833 -108.0000 90° East 500 575 37,000  Level Edmonton Center
11:36AM 49.9833 -107.7667 90° East 500 575 37,000  Level Edmonton Center
11:37AM 49.9833 -107.5667 90° East 500 575 37,000  Level Edmonton Center
11:38AM 49.9833 -107.3167 90° East 500 575 37,000  Level Edmonton Center
11:39AM 49.9833 -107.1167 90° East 500 575 37,000  Level Edmonton Center
11:40AM 49.9667 -106.9000 97° East 500 575 37,000  Level Edmonton Center
11:41AM 49.9833 -106.6667 84° East 500 575 37,000  Level Edmonton Center
11:42AM 49.9833 -106.4667 90° East 500 575 37,000  Level Edmonton Center
11:43AM 49.9667 -106.2500 97° East 500 575 37,000  Level Edmonton Center
11:44AM 49.9667 -106.0167 90° East 500 575 37,000  Level Edmonton Center
11:45AM 49.9667 -105.8000 90° East 500 575 37,000  Level Edmonton Center
11:46AM 49.9500 -105.6000 97° East 500 575 37,000  Level Edmonton Center
11:47AM 49.9500 -105.3833 90° East 500 575 37,000  Level Edmonton Center
11:48AM 49.9667 -105.2167 81° East 500 575 37,000  Level Winnipeg Center
11:49AM 49.9667 -104.9833 90° East 500 575 37,000  Level Winnipeg Center
11:50AM 49.9500 -104.7833 97° East 500 575 37,000  Level Winnipeg Center
11:51AM 49.9500 -104.5667 90° East 500 575 37,000  Level Winnipeg Center
11:52AM 49.9500 -104.3333 90° East 500 575 37,000  Level Winnipeg Center
11:53AM 49.9333 -104.1167 97° East 500 575 37,000  Level Winnipeg Center
11:54AM 49.9167 -103.9167 97° East 500 575 37,000  Level Winnipeg Center
11:55AM 49.9167 -103.7000 90° East 510 587 37,000  Level Winnipeg Center
11:56AM 49.9167 -103.4667 90° East 500 575 37,000  Level Winnipeg Center
11:57AM 49.9000 -103.2500 97° East 500 575 37,000  Level Winnipeg Center
11:58AM 49.9000 -103.0167 90° East 500 575 37,000  Level Winnipeg Center
11:59AM 49.8833 -102.8167 97° East 510 587 37,000  Level Winnipeg Center
12:00PM 49.8667 -102.6000 97° East 510 587 37,000  Level Winnipeg Center
12:01PM 49.8667 -102.3667 90° East 510 587 37,000  Level Winnipeg Center
12:02PM 49.8667 -102.1667 90° East 510 587 37,000  Level Winnipeg Center
12:03PM 49.8333 -101.9167 102° East 510 587 37,000  Level Winnipeg Center
12:04PM 49.8333 -101.7167 90° East 510 587 37,000  Level Winnipeg Center
12:05PM 49.8167 -101.5000 97° East 510 587 37,000  Level Winnipeg Center
12:06PM 49.8167 -101.2667 90° East 510 587 37,000  Level Winnipeg Center
12:07PM 49.7833 -101.0667 104° East 510 587 37,000  Level Winnipeg Center
12:08PM 49.7833 -100.8500 90° East 510 587 37,000  Level Winnipeg Center
12:09PM 49.7667 -100.6167 96° East 510 587 37,000  Level Winnipeg Center
12:10PM 49.7667 -100.4167 90° East 510 587 37,000  Level Winnipeg Center
12:11PM 49.7333 -100.1833 102° East 510 587 37,000  Level Winnipeg Center
12:12PM 49.7167 -99.9667 97° East 510 587 37,000  Level Winnipeg Center
12:13PM 49.7167 -99.7333 90° East 520 598 37,000  Level Winnipeg Center
12:14PM 49.7000 -99.5000 96° East 520 598 37,000  Level Winnipeg Center
12:15PM 49.6833 -99.3000 97° East 520 598 37,000  Level Winnipeg Center
12:16PM 49.6667 -99.0833 97° East 520 598 37,000  Level Winnipeg Center
12:17PM 49.6500 -98.8500 96° East 520 598 37,000  Level Winnipeg Center
12:18PM 49.6333 -98.6167 96° East 520 598 37,000  Level Winnipeg Center
12:19PM 49.6167 -98.4167 97° East 520 598 37,000  Level Winnipeg Center
12:20PM 49.5833 -98.2000 103° East 520 598 37,000  Level Winnipeg Center
12:21PM 49.5667 -97.9667 96° East 520 598 37,000  Level Winnipeg Center
12:22PM 49.5667 -97.7333 90° East 520 598 37,000  Level Winnipeg Center
12:23PM 49.5500 -97.5000 96° East 520 598 37,000  Level Winnipeg Center
12:24PM 49.5167 -97.3000 104° East 520 598 37,000  Level Winnipeg Center
12:25PM 49.5000 -97.0667 96° East 520 598 37,000  Level Winnipeg Center
12:26PM 49.4833 -96.8667 97° East 520 598 37,000  Level Winnipeg Center
12:27PM 49.4500 -96.6333 102° East 530 610 37,000  Level Winnipeg Center
12:28PM 49.4333 -96.4000 96° East 530 610 37,000  Level Winnipeg Center
12:29PM 49.4000 -96.1667 102° East 530 610 37,000  Level Winnipeg Center
12:30PM 49.3833 -95.9667 97° East 530 610 37,000  Level Winnipeg Center
12:31PM 49.3667 -95.7667 97° East 530 610 37,000  Level Winnipeg Center
12:32PM 49.3333 -95.5000 101° East 530 610 37,000  Level Winnipeg Center
12:33PM 49.3167 -95.3000 97° East 530 610 37,000  Level Winnipeg Center
12:34PM 49.3000 -95.0667 96° East 530 610 37,000  Level Winnipeg Center
12:35PM 49.2500 -94.8667 111° Southeast 530 610 37,000  Level Winnipeg Center
12:36PM 49.2333 -94.6333 96° East 530 610 37,000  Level Winnipeg Center
12:37PM 49.2167 -94.4000 96° East 530 610 37,000  Level Winnipeg Center
12:38PM 49.2000 -94.2000 97° East 530 610 37,000  Level Winnipeg Center
12:39PM 49.1500 -93.9667 108° East 530 610 37,000  Level Winnipeg Center
12:40PM 49.1333 -93.7500 97° East 530 610 37,000  Level Winnipeg Center
12:41PM 49.1000 -93.5167 102° East 530 610 37,000  Level Winnipeg Center
12:42PM 49.0833 -93.3167 97° East 530 610 37,000  Level Winnipeg Center
12:43PM 49.0500 -93.0833 102° East 530 610 37,000  Level Winnipeg Center
12:44PM 49.0167 -92.8667 103° East 530 610 37,000  Level Winnipeg Center
12:45PM 49.0000 -92.6333 96° East 530 610 37,000  Level Winnipeg Center
12:46PM 48.9667 -92.4333 104° East 530 610 37,000  Level Winnipeg Center
12:47PM 48.9167 -92.2000 108° East 530 610 37,000  Level Winnipeg Center
12:48PM 48.9000 -91.9833 97° East 530 610 37,000  Level Winnipeg Center
12:49PM 48.8667 -91.7833 104° East 520 598 37,000  Level Winnipeg Center
12:50PM 48.8500 -91.5500 96° East 530 610 37,000  Level Winnipeg Center
12:51PM 48.8167 -91.3500 104° East 530 610 37,000  Level Winnipeg Center
12:52PM 48.7667 -91.1333 109° East 530 610 37,000  Level Winnipeg Center
12:53PM 48.7500 -90.9000 96° East 530 610 37,000  Level Winnipeg Center
12:54PM 48.7167 -90.6833 103° East 530 610 37,000  Level Winnipeg Center
12:55PM 48.6667 -90.4833 111° Southeast 530 610 37,000  Level Winnipeg Center
12:56PM 48.6333 -90.2333 101° East 530 610 37,000  Level Winnipeg Center
12:57PM 48.6167 -90.0333 97° East 530 610 37,000  Level Winnipeg Center
12:58PM 48.5833 -89.8167 103° East 530 610 37,000  Level Winnipeg Center
12:59PM 48.5333 -89.5833 108° East 540 621 37,000  Level Winnipeg Center
01:00PM 48.5000 -89.3833 104° East 530 610 37,000  Level Winnipeg Center
01:01PM 48.4667 -89.1667 103° East 510 587 37,000  Level Winnipeg Center
01:02PM 48.4333 -88.9500 103° East 540 621 37,000  Level Winnipeg Center
01:03PM 48.3833 -88.7333 109° East 540 621 37,000  Level Winnipeg Center
01:04PM 48.3500 -88.5000 102° East 540 621 37,000  Level Winnipeg Center
01:05PM 48.3167 -88.2833 103° East 540 621 37,000  Level Winnipeg Center
01:06PM 48.2833 -88.0667 103° East 540 621 37,000  Level Winnipeg Center
01:07PM 48.2333 -87.8667 111° Southeast 530 610 37,000  Level Winnipeg Center
01:08PM 48.2000 -87.6500 103° East 530 610 37,000  Level Winnipeg Center
01:09PM 48.1667 -87.4333 103° East 530 610 37,000  Level Winnipeg Center
01:10PM 48.1333 -87.2167 103° East 530 610 37,000  Level Winnipeg Center
01:11PM 48.0833 -87.0167 110° East 530 610 37,000  Level Winnipeg Center
01:12PM 48.0333 -86.8000 109° East 530 610 37,000  Level Winnipeg Center
01:13PM 48.0000 -86.5833 103° East 530 610 37,000  Level Winnipeg Center
01:14PM 47.9667 -86.3667 103° East 530 610 37,000  Level Winnipeg Center
01:15PM 47.9333 -86.1500 103° East 540 621 37,000  Level Winnipeg Center
01:16PM 47.8667 -85.9333 115° Southeast 530 610 37,000  Level Winnipeg Center
01:17PM 47.8333 -85.7667 107° East 530 610 37,000  Level Toronto Center
01:18PM 47.8000 -85.5667 104° East 530 610 37,000  Level Toronto Center
01:19PM 47.7667 -85.3667 104° East 530 610 37,000  Level Toronto Center
01:20PM 47.7167 -85.1500 109° East 530 610 37,000  Level Toronto Center
01:21PM 47.6667 -84.9333 109° East 530 610 37,000  Level Toronto Center
01:22PM 47.6167 -84.7333 110° East 520 598 37,000  Level Toronto Center
01:23PM 47.5833 -84.5167 103° East 530 610 37,000  Level Toronto Center
01:24PM 47.5333 -84.3167 110° East 530 610 37,000  Level Toronto Center
01:25PM 47.5000 -84.1167 104° East 520 598 37,000  Level Toronto Center
01:26PM 47.4500 -83.9000 109° East 520 598 37,000  Level Toronto Center
01:27PM 47.4167 -83.7000 104° East 520 598 37,000  Level Toronto Center
01:28PM 47.3500 -83.5167 118° Southeast 520 598 37,000  Level Toronto Center
01:29PM 47.3167 -83.3000 103° East 520 598 37,000  Level Toronto Center
01:30PM 47.2667 -83.1000 110° East 520 598 37,000  Level Toronto Center
01:31PM 47.2167 -82.9000 110° East 530 610 37,000  Level Toronto Center
01:32PM 47.1833 -82.7000 104° East 530 610 37,000  Level Toronto Center
01:33PM 47.1333 -82.5000 110° East 530 610 37,000  Level Toronto Center
01:34PM 47.0833 -82.2833 109° East 530 610 37,000  Level Toronto Center
01:35PM 47.0167 -82.0833 116° Southeast 530 610 37,000  Level Toronto Center
01:36PM 46.9833 -81.8833 104° East 530 610 37,000  Level Toronto Center
01:37PM 46.9333 -81.6833 110° East 520 598 37,000  Level Toronto Center
01:38PM 46.8833 -81.4667 109° East 520 598 37,000  Level Toronto Center
01:39PM 46.8333 -81.2833 112° Southeast 520 598 37,000  Level Toronto Center
01:40PM 46.7833 -81.1000 112° Southeast 520 598 37,000  Level Toronto Center
01:41PM 46.7333 -80.8667 107° East 520 598 37,000  Level Toronto Center
01:42PM 46.6833 -80.6833 112° Southeast 520 598 37,000  Level Toronto Center
01:43PM 46.6333 -80.4833 110° East 520 598 37,000 -420 Level Toronto Center
01:44PM 46.5833 -80.2833 110° East 510 587 36,200 -960 Descending Toronto Center
01:45PM 46.5333 -80.1000 112° Southeast 510 587 35,100 -1,080 Descending Toronto Center
01:46PM 46.4833 -79.9000 110° East 530 610 34,100 -780 Descending Toronto Center
01:47PM 46.4333 -79.7000 110° East 520 598 33,600 -420 Descending Toronto Center
01:48PM 46.3833 -79.5167 112° Southeast 510 587 33,300 -300 Descending Toronto Center
01:49PM 46.3167 -79.3167 116° Southeast 520 598 33,000 -180 Descending Toronto Center
01:50PM 46.2500 -79.1333 118° Southeast 510 587 33,000  Level Toronto Center
01:51PM 46.1833 -78.9833 123° Southeast 520 598 33,000  Level Toronto Center
01:52PM 46.1167 -78.7667 114° Southeast 520 598 33,000  Level Toronto Center
01:53PM 46.0500 -78.6000 120° Southeast 510 587 33,000  Level Toronto Center
01:54PM 45.9667 -78.4167 123° Southeast 510 587 33,000 -900 Level Toronto Center
01:55PM 45.9000 -78.2500 120° Southeast 500 575 31,200 -2,580 Descending Toronto Center
01:56PM 45.8333 -78.0500 116° Southeast 500 575 27,900 -2,940 Descending Toronto Center
01:57PM 45.7833 -77.8833 113° Southeast 500 575 25,400 -2,220 Descending Toronto Center
01:58PM 45.7167 -77.7167 120° Southeast 470 541 23,500 -1,800 Descending Toronto Center
01:59PM 45.6500 -77.5833 126° Southeast 460 529 21,800 -2,160 Descending Toronto Center
02:00PM 45.6167 -77.3833 103° East 460 529 19,200 -2,520 Descending Toronto Center
02:01PM 45.5833 -77.2667 112° Southeast 460 529 17,100 -1,800 Descending Montreal Center
02:02PM 45.5500 -77.1167 108° East 430 495 15,800 -1,440 Descending Montreal Center
02:03PM 45.5167 -76.9667 108° East 390 449 14,300 -1,680 Descending Montreal Center
02:04PM 45.4833 -76.7833 104° East 370 426 12,300 -1,620 Descending Toronto Center
02:05PM 45.4667 -76.6667 101° East 320 368 10,900 -1,740 Descending Toronto Center
02:06PM 45.4333 -76.5667 115° Southeast 300 345 8,900 -1,740 Descending Toronto Center
02:07PM 45.4000 -76.4500 112° Southeast 290 334 7,500 -1,440 Descending Toronto Center
02:08PM 45.3833 -76.3500 103° East 270 311 6,100 -1,440 Descending Toronto Center
02:09PM 45.3667 -76.3000 115° Southeast 250 288 4,800 -1,320 Descending Montreal Center
02:10PM 45.3500 -76.2000 103° East 240 276 3,700 -1,020 Descending Montreal Center
02:11PM 45.3167 -76.1167 120° Southeast 210 242 2,800 -900 Descending Montreal Center
02:12PM 45.3000 -76.0333 106° East 190 219 2,000 -600 Descending Montreal Center
02:13PM 45.2833 -76.0000 125° Southeast 150 173 1,700 -300 Descending Montreal Center
02:14PM 45.3000 -75.9500 65° Northeast 170 196 1,400 -480 Descending Montreal Center
02:15PM 45.3000 -76.0000 270° West 110 127 800 -600 Descending Montreal Center